createdAt,value
2022-09-03T00:00:11.661Z,5.80
2022-09-03T00:11:38.218Z,6.80
2022-09-03T00:14:29.581Z,6.63
2022-09-03T00:20:09.987Z,6.27
2022-09-03T00:25:50.088Z,6.37
2022-09-03T00:31:20.797Z,6.60
2022-09-03T00:36:59.861Z,5.63
2022-09-03T00:39:50.093Z,5.80
2022-09-03T00:48:17.825Z,6.07
2022-09-03T00:51:13.418Z,6.20
2022-09-03T00:54:05.291Z,6.33
2022-09-03T00:56:56.846Z,5.80
2022-09-03T00:59:48.638Z,6.00
2022-09-03T01:05:43.500Z,6.40
2022-09-03T01:11:32.358Z,5.73
2022-09-03T01:20:52.090Z,5.53
2022-09-03T01:27:15.490Z,4.90
2022-09-03T01:32:58.155Z,4.70
2022-09-03T01:44:26.241Z,3.93
2022-09-03T01:50:06.416Z,3.63
2022-09-03T01:55:40.623Z,4.40
2022-09-03T01:58:31.828Z,4.07
2022-09-03T02:01:23.233Z,3.70
2022-09-03T02:07:06.197Z,3.20
2022-09-03T02:12:38.386Z,2.83
2022-09-03T02:15:28.484Z,2.93
2022-09-03T02:21:02.305Z,2.60
2022-09-03T02:23:51.460Z,3.37
2022-09-03T02:29:34.379Z,3.10
2022-09-03T02:32:22.444Z,2.80
2022-09-03T02:38:11.405Z,3.10
2022-09-03T02:41:02.008Z,3.00
2022-09-03T02:46:44.822Z,3.30
2022-09-03T02:49:35.791Z,2.70
2022-09-03T02:55:09.539Z,3.10
2022-09-03T03:00:55.150Z,3.20
2022-09-03T03:06:29.593Z,3.47
2022-09-03T03:12:03.505Z,3.70
2022-09-03T03:14:51.952Z,3.57
2022-09-03T03:20:28.748Z,3.20
2022-09-03T03:26:02.717Z,3.70
2022-09-03T03:31:40.853Z,3.20
2022-09-03T03:34:29.151Z,3.43
2022-09-03T03:40:09.392Z,3.40
2022-09-03T03:42:59.239Z,3.03
2022-09-03T03:48:44.896Z,3.30
2022-09-03T03:54:17.646Z,2.80
2022-09-03T03:57:05.844Z,3.10
2022-09-03T03:59:54.543Z,3.20
2022-09-03T04:05:33.676Z,3.07
2022-09-03T04:11:09.233Z,2.73
2022-09-03T04:16:48.438Z,2.30
2022-09-03T04:19:38.050Z,2.43
2022-09-03T04:25:14.111Z,2.80
2022-09-03T04:30:49.859Z,2.67
2022-09-03T04:36:28.155Z,2.50
2022-09-03T04:39:16.607Z,2.13
2022-09-03T04:44:46.739Z,2.27
2022-09-03T04:50:23.515Z,2.50
2022-09-03T04:53:12.158Z,2.33
2022-09-03T04:58:44.361Z,2.80
2022-09-03T05:07:02.457Z,2.27
2022-09-03T05:12:36.800Z,2.43
2022-09-03T05:18:13.048Z,1.90
2022-09-03T05:23:51.229Z,1.83
2022-09-03T05:29:27.046Z,1.80
2022-09-03T05:35:03.676Z,2.03
2022-09-03T05:40:38.598Z,1.90
2022-09-03T05:46:16.517Z,2.17
2022-09-03T05:49:06.532Z,1.80
2022-09-03T05:51:55.852Z,2.00
2022-09-03T05:58:01.075Z,2.20
2022-09-03T06:03:35.334Z,2.20
2022-09-03T06:06:25.905Z,1.80
2022-09-03T06:11:57.254Z,2.03
2022-09-03T06:17:32.946Z,1.63
2022-09-03T06:20:21.248Z,1.73
2022-09-03T06:23:10.623Z,1.90
2022-09-03T06:26:07.368Z,1.70
2022-09-03T06:31:42.805Z,1.87
2022-09-03T06:37:18.521Z,1.70
2022-09-03T06:40:10.411Z,1.80
2022-09-03T06:43:00.757Z,1.80
2022-09-03T06:48:43.132Z,2.70
2022-09-03T06:51:37.679Z,1.90
2022-09-03T06:54:26.243Z,1.83
2022-09-03T07:00:02.548Z,1.50
2022-09-03T07:05:39.975Z,1.97
2022-09-03T07:11:11.965Z,1.63
2022-09-03T07:14:01.430Z,1.60
2022-09-03T07:16:50.596Z,1.90
2022-09-03T07:22:31.423Z,1.90
2022-09-03T07:27:55.839Z,1.90
2022-09-03T07:33:25.382Z,2.27
2022-09-03T07:36:26.366Z,1.70
2022-09-03T07:42:02.459Z,1.87
2022-09-03T07:47:34.452Z,2.10
2022-09-03T07:53:05.184Z,2.43
2022-09-03T07:58:42.935Z,2.07
2022-09-03T08:04:14.140Z,2.03
2022-09-03T08:09:52.134Z,2.30
2022-09-03T08:12:40.545Z,2.57
2022-09-03T08:15:30.143Z,2.30
2022-09-03T08:18:20.117Z,2.23
2022-09-03T08:24:00.705Z,2.53
2022-09-03T08:26:52.075Z,2.43
2022-09-03T08:29:42.292Z,2.40
2022-09-03T08:35:18.226Z,2.23
2022-09-03T08:38:08.933Z,2.40
2022-09-03T08:44:26.544Z,2.10
2022-09-03T08:47:17.986Z,2.37
2022-09-03T08:55:41.190Z,2.37
2022-09-03T09:01:30.856Z,2.03
2022-09-03T09:07:13.268Z,1.80
2022-09-03T09:10:06.802Z,1.93
2022-09-03T09:15:49.264Z,1.77
2022-09-03T09:21:35.194Z,2.00
2022-09-03T09:24:26.374Z,2.37
2022-09-03T09:27:17.450Z,1.80
2022-09-03T09:32:54.611Z,2.30
2022-09-03T09:38:35.601Z,2.10
2022-09-03T09:41:29.129Z,1.97
2022-09-03T09:44:22.038Z,1.87
2022-09-03T09:50:05.599Z,2.10
2022-09-03T09:55:56.632Z,1.90
2022-09-03T09:58:45.099Z,1.97
2022-09-03T10:04:32.889Z,1.70
2022-09-03T10:10:20.164Z,1.97
2022-09-03T10:15:59.992Z,1.67
2022-09-03T10:18:52.807Z,1.50
2022-09-03T10:24:40.303Z,1.90
2022-09-03T10:30:17.684Z,1.40
2022-09-03T10:35:59.276Z,1.33
2022-09-03T10:41:46.191Z,1.70
2022-09-03T10:47:38.075Z,1.40
2022-09-03T10:53:14.123Z,1.20
2022-09-03T10:59:00.259Z,1.30
2022-09-03T11:01:51.986Z,1.50
2022-09-03T11:07:28.720Z,1.50
2022-09-03T11:10:25.436Z,1.77
2022-09-03T11:16:11.144Z,1.43
2022-09-03T11:21:44.245Z,1.13
2022-09-03T11:27:33.588Z,1.07
2022-09-03T11:30:28.090Z,1.17
2022-09-03T11:36:00.640Z,1.03
2022-09-03T11:41:30.194Z,1.33
2022-09-03T11:47:17.678Z,1.50
2022-09-03T11:53:04.035Z,1.20
2022-09-03T12:21:36.088Z,1.10
2022-09-03T12:24:26.166Z,0.90
2022-09-03T12:30:04.470Z,1.00
2022-09-03T12:41:27.376Z,1.00
2022-09-03T12:44:15.938Z,1.20
2022-09-03T12:52:56.064Z,1.07
2022-09-03T12:55:45.137Z,1.10
2022-09-03T13:01:22.214Z,1.10
2022-09-03T13:04:14.405Z,1.00
2022-09-03T13:10:03.799Z,1.00
2022-09-03T13:15:46.233Z,0.90
2022-09-03T13:18:38.410Z,1.13
2022-09-03T13:24:31.042Z,0.90
2022-09-03T14:13:49.546Z,1.60
2022-09-03T14:16:42.550Z,1.60
2022-09-03T14:25:04.444Z,1.60
2022-09-03T14:30:41.831Z,1.60
2022-09-03T14:37:12.650Z,1.87
2022-09-03T14:42:58.912Z,1.77
2022-09-03T14:46:05.908Z,1.50
2022-09-03T14:49:34.546Z,1.70
2022-09-03T14:55:22.461Z,1.57
2022-09-03T14:58:24.337Z,1.50
2022-09-03T15:07:33.763Z,1.50
2022-09-03T15:13:17.498Z,1.40
2022-09-03T15:19:15.089Z,1.10
2022-09-03T15:24:58.306Z,1.37
2022-09-03T15:28:11.569Z,1.30
2022-09-03T15:33:51.091Z,1.27
2022-09-03T15:39:31.648Z,1.50
2022-09-03T15:48:11.379Z,1.20
2022-09-03T15:53:55.418Z,1.50
2022-09-03T15:59:34.783Z,1.60
2022-09-03T16:05:18.159Z,1.20
2022-09-03T16:08:11.250Z,1.40
2022-09-03T16:11:07.871Z,1.20
2022-09-03T16:16:58.264Z,1.40
2022-09-03T16:22:36.790Z,1.47
2022-09-03T16:28:12.823Z,1.30
2022-09-03T16:33:57.529Z,1.40
2022-09-03T16:39:39.793Z,1.40
2022-09-03T16:48:17.458Z,1.30
2022-09-03T16:54:14.963Z,1.37
2022-09-03T17:00:09.430Z,1.37
2022-09-03T17:09:30.855Z,2.10
2022-09-03T17:15:25.552Z,2.30
2022-09-03T17:18:29.085Z,1.83
2022-09-03T17:24:40.346Z,1.60
2022-09-03T17:33:34.718Z,1.80
2022-09-03T17:39:52.031Z,1.70
2022-09-03T17:45:39.220Z,1.80
2022-09-03T17:51:42.773Z,1.77
2022-09-03T17:54:38.134Z,2.00
2022-09-03T17:57:30.731Z,2.20
2022-09-03T18:03:23.273Z,1.70
2022-09-03T18:06:22.420Z,1.90
2022-09-03T18:12:01.022Z,2.10
2022-09-03T18:17:53.045Z,1.97
2022-09-03T18:23:48.917Z,2.00
2022-09-03T18:29:43.924Z,1.87
2022-09-03T18:32:50.261Z,1.70
2022-09-03T18:35:57.167Z,1.93
2022-09-03T18:53:43.413Z,2.00
2022-09-03T18:59:49.260Z,1.77
2022-09-03T19:05:47.402Z,1.90
2022-09-03T19:11:46.854Z,2.10
2022-09-03T19:17:47.802Z,2.20
2022-09-03T19:23:44.087Z,2.10
2022-09-03T19:29:32.549Z,2.23
2022-09-03T19:41:27.064Z,2.10
2022-09-03T19:47:21.302Z,1.93
2022-09-03T19:53:11.664Z,2.20
2022-09-03T19:56:20.591Z,2.10
2022-09-03T20:02:15.748Z,2.20
2022-09-03T20:08:14.692Z,2.33
2022-09-03T20:11:06.518Z,2.33
2022-09-03T20:16:37.077Z,2.30
2022-09-03T20:22:15.157Z,2.40
2022-09-03T20:27:53.842Z,1.83
2022-09-03T20:33:29.139Z,2.37
2022-09-03T20:39:16.318Z,1.70
2022-09-03T20:45:00.676Z,1.80
2022-09-03T20:50:42.467Z,1.80
2022-09-03T20:53:54.831Z,1.80
2022-09-03T20:56:59.516Z,1.77
2022-09-03T21:03:06.271Z,2.07
2022-09-03T21:06:06.673Z,1.80
2022-09-03T21:09:04.276Z,1.80
2022-09-03T21:14:42.554Z,1.80
2022-09-03T21:20:28.472Z,1.70
2022-09-03T21:26:14.558Z,1.77
2022-09-03T21:31:50.857Z,1.57
2022-09-03T21:37:28.473Z,2.03
2022-09-03T21:40:24.511Z,1.57
2022-09-03T21:48:52.458Z,1.67
2022-09-03T21:51:44.207Z,1.77
2022-09-03T21:54:34.210Z,1.50
2022-09-03T22:03:14.161Z,1.60
2022-09-03T22:08:55.290Z,1.47
2022-09-03T22:14:27.964Z,1.70
2022-09-03T22:17:20.100Z,1.50
2022-09-03T22:20:10.139Z,1.50
2022-09-03T22:25:45.929Z,1.50
2022-09-03T22:31:17.888Z,1.37
2022-09-03T22:36:50.369Z,1.60
2022-09-03T22:42:47.618Z,1.70
2022-09-03T22:45:44.020Z,1.50
2022-09-03T22:51:25.696Z,1.50
2022-09-03T22:57:09.164Z,1.50
2022-09-03T23:02:50.796Z,1.50
2022-09-03T23:05:45.602Z,1.50
2022-09-03T23:11:27.236Z,1.80
2022-09-03T23:14:18.003Z,1.60
2022-09-03T23:19:52.603Z,1.37
2022-09-03T23:25:29.078Z,1.50
2022-09-03T23:31:06.478Z,1.70
2022-09-03T23:39:53.291Z,1.50
2022-09-03T23:42:52.056Z,1.50
2022-09-03T23:48:37.992Z,1.47
2022-09-03T23:54:23.153Z,1.50
